Time;durP1;ratioP1;P1;durP2;ratioP2;P2;SDS_P1;SDS_P2;PMS_P1;PMS_P2;Temp;Humidity;BMP_temperature;BMP_pressure;BME280_temperature;BME280_humidity;BME280_pressure;Samples;Min_cycle;Max_cycle;Signal;HPM_P1;HPM_P2
2023/02/22 00:00:18;;;;;;;54.65;30.15;;;;;;;;;;4904649;29;20025;-92
2023/02/22 00:02:48;;;;;;;67.88;34.10;;;;;;;;;;4887961;29;20327;-92
2023/02/22 00:05:18;;;;;;;70.75;34.35;;;;;;;;;;4888531;29;20040;-91
2023/02/22 00:07:48;;;;;;;59.63;30.05;;;;;;;;;;4904645;29;20043;-92
2023/02/22 00:10:19;;;;;;;62.95;31.27;;;;;;;;;;4905364;29;20036;-92
2023/02/22 00:12:47;;;;;;;67.20;32.38;;;;;;;;;;4923711;29;20055;-93
2023/02/22 00:15:13;;;;;;;61.42;31.85;;;;;;;;;;4923864;29;20050;-93
2023/02/22 00:17:39;;;;;;;49.90;29.20;;;;;;;;;;4906913;29;20020;-93
2023/02/22 00:20:06;;;;;;;48.95;29.17;;;;;;;;;;4906634;29;20072;-94
2023/02/22 00:22:32;;;;;;;48.03;27.75;;;;;;;;;;4923107;29;20106;-92
2023/02/22 00:24:58;;;;;;;47.20;28.33;;;;;;;;;;4906481;29;20036;-92
2023/02/22 00:27:25;;;;;;;54.10;30.23;;;;;;;;;;4906359;29;20411;-93
2023/02/22 00:29:51;;;;;;;46.50;28.10;;;;;;;;;;4906264;29;20127;-92
2023/02/22 00:32:17;;;;;;;50.75;28.88;;;;;;;;;;4923011;29;20028;-94
2023/02/22 00:34:43;;;;;;;50.92;28.30;;;;;;;;;;4906452;29;20020;-95
2023/02/22 00:37:12;;;;;;;55.50;29.08;;;;;;;;;;4923487;29;20031;-95
2023/02/22 00:39:38;;;;;;;48.22;27.25;;;;;;;;;;4923643;29;20032;-94
2023/02/22 00:42:04;;;;;;;48.67;26.08;;;;;;;;;;4923154;29;20122;-95
2023/02/22 00:44:31;;;;;;;50.63;27.23;;;;;;;;;;4922936;29;20043;-94
2023/02/22 00:46:58;;;;;;;48.47;26.88;;;;;;;;;;4923257;29;20119;-94
2023/02/22 00:49:24;;;;;;;39.22;24.40;;;;;;;;;;4923145;29;20120;-94
2023/02/22 00:51:51;;;;;;;41.00;24.35;;;;;;;;;;4906325;29;20048;-94
2023/02/22 00:54:18;;;;;;;41.15;24.33;;;;;;;;;;4905676;29;20052;-94
2023/02/22 00:56:44;;;;;;;37.42;23.08;;;;;;;;;;4923541;29;20435;-95
2023/02/22 00:59:11;;;;;;;37.72;22.75;;;;;;;;;;4906898;29;20036;-95
2023/02/22 01:01:37;;;;;;;41.33;24.27;;;;;;;;;;4910014;29;20020;-95
2023/02/22 01:04:03;;;;;;;39.95;23.92;;;;;;;;;;4923793;29;20032;-94
2023/02/22 01:06:29;;;;;;;41.63;24.98;;;;;;;;;;4924423;29;20103;-94
2023/02/22 01:08:55;;;;;;;46.58;26.40;;;;;;;;;;4923635;29;20419;-95
2023/02/22 01:11:21;;;;;;;51.03;29.40;;;;;;;;;;4924029;29;20028;-95
2023/02/22 01:13:47;;;;;;;52.42;29.58;;;;;;;;;;4923628;29;20039;-93
2023/02/22 01:16:17;;;;;;;50.25;28.35;;;;;;;;;;4926455;29;20028;-94
2023/02/22 01:19:10;;;;;;;43.72;26.17;;;;;;;;;;4905950;29;20035;-93
2023/02/22 01:21:36;;;;;;;44.85;25.83;;;;;;;;;;4867098;29;20040;-94
2023/02/22 01:24:03;;;;;;;44.60;26.70;;;;;;;;;;4864390;29;20057;-95
2023/02/22 01:26:29;;;;;;;43.65;27.38;;;;;;;;;;4864452;29;20038;-93
2023/02/22 01:28:55;;;;;;;41.25;25.40;;;;;;;;;;4864235;29;20033;-92
2023/02/22 01:31:22;;;;;;;43.17;25.42;;;;;;;;;;4848929;29;20041;-94
2023/02/22 01:33:49;;;;;;;40.22;25.25;;;;;;;;;;4864277;29;20045;-94
2023/02/22 01:36:17;;;;;;;42.35;25.60;;;;;;;;;;4864852;29;20118;-93
2023/02/22 01:38:44;;;;;;;39.78;24.52;;;;;;;;;;4864360;29;20105;-95
2023/02/22 01:41:11;;;;;;;44.85;27.13;;;;;;;;;;4864248;29;20034;-94
2023/02/22 01:43:37;;;;;;;37.58;23.02;;;;;;;;;;4864554;29;20056;-92
2023/02/22 01:46:05;;;;;;;38.90;22.10;;;;;;;;;;4864300;29;20034;-95
2023/02/22 01:48:34;;;;;;;38.65;23.67;;;;;;;;;;4848877;29;20044;-92
2023/02/22 01:51:11;;;;;;;34.58;21.80;;;;;;;;;;4848585;29;20033;-93
2023/02/22 01:53:41;;;;;;;36.55;20.92;;;;;;;;;;4919133;29;20056;-92
2023/02/22 01:56:07;;;;;;;37.50;21.25;;;;;;;;;;4904991;29;20498;-92
2023/02/22 01:58:34;;;;;;;35.15;21.17;;;;;;;;;;4921642;29;20030;-93
2023/02/22 02:01:01;;;;;;;34.80;20.75;;;;;;;;;;4921921;29;20036;-93
2023/02/22 02:03:32;;;;;;;37.50;22.00;;;;;;;;;;4921868;29;20028;-92
2023/02/22 02:05:59;;;;;;;34.03;19.58;;;;;;;;;;4921769;29;20035;-94
2023/02/22 02:08:28;;;;;;;34.22;20.10;;;;;;;;;;4904991;29;20028;-93
2023/02/22 02:10:55;;;;;;;34.25;19.85;;;;;;;;;;4905364;29;20032;-95
2023/02/22 02:13:21;;;;;;;34.08;19.90;;;;;;;;;;4921537;29;20031;-94
2023/02/22 02:15:48;;;;;;;32.97;20.02;;;;;;;;;;4921919;29;20024;-94
2023/02/22 02:21:28;;;;;;;33.25;21.27;;;;;;;;;;4921517;29;20146;-95
2023/02/22 02:24:11;;;;;;;35.67;20.67;;;;;;;;;;4920790;29;20039;-94
2023/02/22 02:26:37;;;;;;;32.53;20.75;;;;;;;;;;4921264;29;20308;-93
2023/02/22 02:29:22;;;;;;;40.97;22.33;;;;;;;;;;4921449;29;20415;-93
2023/02/22 02:32:01;;;;;;;37.38;21.60;;;;;;;;;;4921472;29;20405;-94
2023/02/22 02:37:32;;;;;;;35.63;21.90;;;;;;;;;;4921175;29;20034;-93
2023/02/22 02:40:10;;;;;;;33.60;22.00;;;;;;;;;;4921067;29;20028;-93
2023/02/22 02:42:40;;;;;;;36.30;22.23;;;;;;;;;;4904584;29;20450;-92
2023/02/22 02:45:14;;;;;;;40.42;22.55;;;;;;;;;;4921464;29;20040;-92
2023/02/22 02:47:44;;;;;;;36.35;22.85;;;;;;;;;;4920880;29;20080;-93
2023/02/22 02:53:17;;;;;;;36.33;21.02;;;;;;;;;;4911666;29;20059;-93
2023/02/22 02:55:43;;;;;;;38.58;22.15;;;;;;;;;;4921121;29;20028;-94
2023/02/22 02:58:16;;;;;;;36.95;22.50;;;;;;;;;;4920728;29;20028;-93
2023/02/22 03:00:43;;;;;;;36.80;22.00;;;;;;;;;;4920808;29;20165;-92
2023/02/22 03:16:52;;;;;;;40.15;24.20;;;;;;;;;;5831707;23;20134;-96
2023/02/22 03:22:23;;;;;;;46.38;25.67;;;;;;;;;;4952143;29;20435;-96
2023/02/22 03:24:57;;;;;;;44.47;26.77;;;;;;;;;;5012446;23;20052;-96
2023/02/22 03:33:19;;;;;;;45.17;26.15;;;;;;;;;;5628968;23;20056;-95
2023/02/22 03:38:39;;;;;;;45.75;26.23;;;;;;;;;;4958384;23;20059;-96
2023/02/22 03:44:00;;;;;;;50.83;26.75;;;;;;;;;;4942113;29;20489;-94
2023/02/22 03:46:30;;;;;;;48.10;26.73;;;;;;;;;;4942926;29;20462;-95
2023/02/22 04:08:15;;;;;;;43.83;25.50;;;;;;;;;;725312;23;20317;-92
2023/02/22 04:10:41;;;;;;;42.35;25.25;;;;;;;;;;4922058;29;20404;-94
2023/02/22 04:13:09;;;;;;;47.08;27.27;;;;;;;;;;4923109;29;20031;-94
2023/02/22 04:15:35;;;;;;;46.00;25.63;;;;;;;;;;4906953;29;20478;-93
2023/02/22 04:18:01;;;;;;;44.00;25.17;;;;;;;;;;4923293;29;20028;-95
2023/02/22 04:23:45;;;;;;;47.75;26.10;;;;;;;;;;4923047;29;20068;-95
2023/02/22 04:26:11;;;;;;;48.22;24.27;;;;;;;;;;4915400;29;20039;-94
2023/02/22 04:28:37;;;;;;;48.45;25.38;;;;;;;;;;4917476;29;20472;-93
2023/02/22 04:31:03;;;;;;;46.28;26.95;;;;;;;;;;4922995;29;20036;-95
2023/02/22 04:33:29;;;;;;;44.88;24.67;;;;;;;;;;4923685;29;20066;-93
2023/02/22 04:35:56;;;;;;;41.83;23.73;;;;;;;;;;4943466;23;20058;-95
2023/02/22 04:38:26;;;;;;;42.05;22.67;;;;;;;;;;4950993;29;20031;-95
2023/02/22 04:40:54;;;;;;;39.15;23.30;;;;;;;;;;4931246;29;20036;-93
2023/02/22 04:43:21;;;;;;;43.20;22.85;;;;;;;;;;4920490;29;20414;-80
2023/02/22 04:45:47;;;;;;;42.38;22.98;;;;;;;;;;4922663;29;20036;-81
2023/02/22 04:48:14;;;;;;;43.42;23.05;;;;;;;;;;4901740;29;20052;-81
2023/02/22 04:50:41;;;;;;;46.60;23.52;;;;;;;;;;4922236;29;20032;-81
2023/02/22 04:53:07;;;;;;;39.35;22.80;;;;;;;;;;4922574;29;20032;-81
2023/02/22 04:55:33;;;;;;;44.85;24.58;;;;;;;;;;4922307;29;20034;-82
2023/02/22 04:57:59;;;;;;;36.28;21.80;;;;;;;;;;4922449;29;20024;-81
2023/02/22 05:00:25;;;;;;;38.75;21.90;;;;;;;;;;4922181;29;20360;-81
2023/02/22 05:02:51;;;;;;;39.55;21.70;;;;;;;;;;4922264;29;20028;-81
2023/02/22 05:05:20;;;;;;;36.75;21.55;;;;;;;;;;4922184;29;20063;-81
2023/02/22 05:07:46;;;;;;;37.38;21.38;;;;;;;;;;4922039;29;20060;-81
2023/02/22 05:10:12;;;;;;;40.90;22.23;;;;;;;;;;4922241;29;20024;-81
2023/02/22 05:12:39;;;;;;;43.10;23.13;;;;;;;;;;4922077;29;20028;-81
2023/02/22 05:15:06;;;;;;;43.70;25.58;;;;;;;;;;4922203;29;20028;-81
2023/02/22 05:17:32;;;;;;;46.60;27.63;;;;;;;;;;4905063;29;20035;-81
2023/02/22 05:19:58;;;;;;;46.92;26.30;;;;;;;;;;4921779;29;20459;-81
2023/02/22 05:22:24;;;;;;;43.35;25.42;;;;;;;;;;4922017;29;20055;-82
2023/02/22 05:24:51;;;;;;;38.65;24.80;;;;;;;;;;4904685;29;20051;-81
2023/02/22 05:27:17;;;;;;;42.83;25.02;;;;;;;;;;4921869;29;20028;-81
2023/02/22 05:29:43;;;;;;;42.53;26.13;;;;;;;;;;4921977;29;20025;-81
2023/02/22 05:32:11;;;;;;;57.67;31.92;;;;;;;;;;4921801;29;20020;-82
2023/02/22 05:34:37;;;;;;;63.20;32.22;;;;;;;;;;4921541;29;20032;-81
2023/02/22 05:37:03;;;;;;;70.03;31.92;;;;;;;;;;4921307;29;20063;-81
2023/02/22 05:39:30;;;;;;;63.30;33.35;;;;;;;;;;4921647;29;20063;-81
2023/02/22 05:41:56;;;;;;;58.15;31.02;;;;;;;;;;4904828;29;20024;-81
2023/02/22 05:44:23;;;;;;;59.80;31.67;;;;;;;;;;4921679;29;20024;-81
2023/02/22 05:46:49;;;;;;;86.78;40.53;;;;;;;;;;4921478;29;20024;-81
2023/02/22 05:49:15;;;;;;;75.03;40.33;;;;;;;;;;4921366;29;20031;-81
2023/02/22 05:51:41;;;;;;;63.08;35.22;;;;;;;;;;4904573;29;20091;-81
2023/02/22 05:54:07;;;;;;;58.58;33.53;;;;;;;;;;4921255;29;20067;-82
2023/02/22 05:56:35;;;;;;;57.20;36.08;;;;;;;;;;4921343;29;20039;-81
2023/02/22 05:59:01;;;;;;;58.72;33.75;;;;;;;;;;4920486;29;20107;-81
2023/02/22 06:01:27;;;;;;;41.08;26.60;;;;;;;;;;4921617;29;20027;-81
2023/02/22 06:03:53;;;;;;;38.80;23.15;;;;;;;;;;4921123;29;20080;-81
2023/02/22 06:06:19;;;;;;;37.78;23.67;;;;;;;;;;4921221;29;20032;-81
2023/02/22 06:08:45;;;;;;;106.57;44.55;;;;;;;;;;4921330;29;20080;-81
2023/02/22 06:11:11;;;;;;;118.35;51.80;;;;;;;;;;4921377;29;20043;-81
2023/02/22 06:13:38;;;;;;;119.70;55.95;;;;;;;;;;4921147;29;20020;-82
2023/02/22 06:16:04;;;;;;;98.82;50.30;;;;;;;;;;4921096;29;20415;-82
2023/02/22 06:18:30;;;;;;;75.43;40.85;;;;;;;;;;4920824;29;20024;-81
2023/02/22 06:20:57;;;;;;;102.13;58.88;;;;;;;;;;4920972;29;20107;-82
2023/02/22 06:23:23;;;;;;;111.72;64.53;;;;;;;;;;4920984;29;20028;-82
2023/02/22 06:25:49;;;;;;;108.18;59.58;;;;;;;;;;4903441;29;20040;-81
2023/02/22 06:28:15;;;;;;;86.00;49.75;;;;;;;;;;4920917;29;20111;-82
2023/02/22 06:30:42;;;;;;;67.43;40.25;;;;;;;;;;4920807;29;20028;-81
2023/02/22 06:33:08;;;;;;;52.63;32.40;;;;;;;;;;4920929;29;20028;-81
2023/02/22 06:35:34;;;;;;;46.25;29.65;;;;;;;;;;4920831;29;20103;-81
2023/02/22 06:38:01;;;;;;;41.20;26.55;;;;;;;;;;4920598;29;20111;-81
2023/02/22 06:40:30;;;;;;;43.42;25.83;;;;;;;;;;4920914;29;20315;-81
2023/02/22 06:42:58;;;;;;;45.70;26.98;;;;;;;;;;4903263;29;20059;-81
2023/02/22 06:45:24;;;;;;;51.95;29.50;;;;;;;;;;4920852;29;20032;-81
2023/02/22 06:47:50;;;;;;;52.80;31.50;;;;;;;;;;4903390;29;20036;-82
2023/02/22 06:50:24;;;;;;;52.75;32.03;;;;;;;;;;4903883;29;20119;-81
2023/02/22 06:52:50;;;;;;;56.50;29.83;;;;;;;;;;4920551;29;20028;-81
2023/02/22 06:55:18;;;;;;;51.70;29.70;;;;;;;;;;4920724;29;20035;-81
2023/02/22 06:57:44;;;;;;;62.45;34.33;;;;;;;;;;4903882;29;20036;-81
2023/02/22 07:00:10;;;;;;;62.88;36.80;;;;;;;;;;4920762;29;20055;-81
2023/02/22 07:02:37;;;;;;;72.40;39.78;;;;;;;;;;4920613;29;20025;-81
2023/02/22 07:05:03;;;;;;;68.47;39.33;;;;;;;;;;4920451;29;20024;-81
2023/02/22 07:07:29;;;;;;;99.63;45.83;;;;;;;;;;4920732;29;20145;-81
2023/02/22 07:09:55;;;;;;;102.03;46.40;;;;;;;;;;4921142;29;20415;-81
2023/02/22 07:12:21;;;;;;;82.38;39.03;;;;;;;;;;4906905;29;20047;-81
2023/02/22 07:14:47;;;;;;;71.38;34.83;;;;;;;;;;4923970;29;20021;-81
2023/02/22 07:17:13;;;;;;;61.13;32.83;;;;;;;;;;4906644;29;20042;-81
2023/02/22 07:19:39;;;;;;;76.93;37.30;;;;;;;;;;4907311;29;20028;-82
2023/02/22 07:22:05;;;;;;;71.43;33.80;;;;;;;;;;4924234;29;20025;-82
2023/02/22 07:24:33;;;;;;;48.90;26.15;;;;;;;;;;4924169;29;20423;-82
2023/02/22 07:27:01;;;;;;;39.42;22.95;;;;;;;;;;4924041;29;20470;-81
2023/02/22 07:29:27;;;;;;;35.47;21.70;;;;;;;;;;4923793;29;20028;-82
2023/02/22 07:31:53;;;;;;;32.20;20.58;;;;;;;;;;4924028;29;20350;-81
2023/02/22 07:34:19;;;;;;;30.83;19.50;;;;;;;;;;4907156;29;20028;-82
2023/02/22 07:36:45;;;;;;;31.10;19.35;;;;;;;;;;4923838;29;20048;-81
2023/02/22 07:39:11;;;;;;;29.52;17.48;;;;;;;;;;4923827;29;20051;-81
2023/02/22 07:41:38;;;;;;;31.20;17.58;;;;;;;;;;4923845;29;20047;-82
2023/02/22 07:44:04;;;;;;;26.42;17.02;;;;;;;;;;4923769;29;20048;-81
2023/02/22 07:46:30;;;;;;;26.83;16.05;;;;;;;;;;4923740;29;20103;-82
2023/02/22 07:48:56;;;;;;;23.75;15.40;;;;;;;;;;4923659;29;20024;-82
2023/02/22 07:51:23;;;;;;;33.03;16.27;;;;;;;;;;4923498;29;20308;-81
2023/02/22 07:53:49;;;;;;;23.95;14.88;;;;;;;;;;4923396;29;20024;-82
2023/02/22 07:56:17;;;;;;;28.00;14.82;;;;;;;;;;4923424;29;20032;-81
2023/02/22 07:58:43;;;;;;;23.23;14.82;;;;;;;;;;4906113;29;20036;-82
2023/02/22 08:01:09;;;;;;;25.05;15.48;;;;;;;;;;4906846;29;20032;-81
2023/02/22 08:03:36;;;;;;;24.30;14.65;;;;;;;;;;4906017;29;20042;-82
2023/02/22 08:06:03;;;;;;;23.17;14.50;;;;;;;;;;4906616;29;20020;-82
2023/02/22 08:08:29;;;;;;;23.70;14.52;;;;;;;;;;4922990;29;20040;-81
2023/02/22 08:10:56;;;;;;;30.67;15.85;;;;;;;;;;4923388;29;20032;-81
2023/02/22 08:13:22;;;;;;;55.40;25.52;;;;;;;;;;4923031;29;20087;-81
2023/02/22 08:15:50;;;;;;;55.33;26.75;;;;;;;;;;4923105;29;20036;-81
2023/02/22 08:18:17;;;;;;;45.50;21.48;;;;;;;;;;4922922;29;20161;-81
2023/02/22 08:20:45;;;;;;;35.70;19.67;;;;;;;;;;4923005;29;20060;-81
2023/02/22 08:23:11;;;;;;;39.75;20.80;;;;;;;;;;4922298;29;20038;-81
2023/02/22 08:25:37;;;;;;;44.80;23.25;;;;;;;;;;4905154;29;20043;-80
2023/02/22 08:28:12;;;;;;;33.90;17.60;;;;;;;;;;4922861;29;20032;-81
2023/02/22 08:30:38;;;;;;;28.52;15.70;;;;;;;;;;4906009;29;20043;-81
2023/02/22 08:33:05;;;;;;;26.92;12.80;;;;;;;;;;4922811;29;20032;-80
2023/02/22 08:35:31;;;;;;;22.05;11.90;;;;;;;;;;4922763;29;20024;-81
2023/02/22 08:37:59;;;;;;;18.10;11.20;;;;;;;;;;4922586;29;20051;-81
2023/02/22 08:40:26;;;;;;;25.23;13.25;;;;;;;;;;4922835;29;20076;-81
2023/02/22 08:42:53;;;;;;;24.13;12.45;;;;;;;;;;4922509;29;20036;-80
2023/02/22 08:45:19;;;;;;;16.52;10.38;;;;;;;;;;4922856;29;20031;-80
2023/02/22 08:47:45;;;;;;;16.02;10.70;;;;;;;;;;4922520;29;20077;-80
2023/02/22 08:50:21;;;;;;;29.20;12.45;;;;;;;;;;4922565;29;20131;-80
2023/02/22 08:52:49;;;;;;;19.83;12.07;;;;;;;;;;4904908;29;20033;-80
2023/02/22 08:55:15;;;;;;;37.47;23.95;;;;;;;;;;4905606;29;20024;-80
2023/02/22 08:57:41;;;;;;;24.10;16.98;;;;;;;;;;4922436;29;20021;-80
2023/02/22 09:00:07;;;;;;;17.00;10.77;;;;;;;;;;4905057;29;20028;-80
2023/02/22 09:02:33;;;;;;;15.65;9.50;;;;;;;;;;4922324;29;20346;-80
2023/02/22 09:04:59;;;;;;;15.85;10.68;;;;;;;;;;4922259;29;20450;-80
2023/02/22 09:07:25;;;;;;;12.05;8.88;;;;;;;;;;4922040;29;20051;-80
2023/02/22 09:09:51;;;;;;;9.98;6.93;;;;;;;;;;4922455;29;20050;-80
2023/02/22 09:12:17;;;;;;;10.35;8.63;;;;;;;;;;4922277;29;20099;-80
2023/02/22 09:14:43;;;;;;;11.55;7.97;;;;;;;;;;4922055;29;20396;-80
2023/02/22 09:17:09;;;;;;;13.02;8.02;;;;;;;;;;4905165;29;20364;-80
2023/02/22 09:19:35;;;;;;;12.95;8.20;;;;;;;;;;4905157;29;20039;-80
2023/02/22 09:22:01;;;;;;;10.95;7.70;;;;;;;;;;4921802;29;20068;-80
2023/02/22 09:24:28;;;;;;;11.95;8.20;;;;;;;;;;4904834;29;20036;-80
2023/02/22 09:26:54;;;;;;;10.60;8.38;;;;;;;;;;4921753;29;20064;-80
2023/02/22 09:29:25;;;;;;;10.70;8.25;;;;;;;;;;4921747;29;20115;-80
2023/02/22 09:31:52;;;;;;;12.93;8.10;;;;;;;;;;4921663;29;20032;-80
2023/02/22 09:34:19;;;;;;;9.88;6.90;;;;;;;;;;4921382;29;20100;-80
2023/02/22 09:36:46;;;;;;;15.95;9.88;;;;;;;;;;4921064;29;20427;-80
2023/02/22 09:39:14;;;;;;;20.33;12.60;;;;;;;;;;4921650;29;20129;-80
2023/02/22 09:41:59;;;;;;;22.65;12.63;;;;;;;;;;4904719;29;20035;-80
2023/02/22 09:44:27;;;;;;;18.05;10.82;;;;;;;;;;4921535;29;20024;-80
2023/02/22 09:46:55;;;;;;;20.80;12.73;;;;;;;;;;4921374;29;20052;-80
2023/02/22 09:49:21;;;;;;;16.25;9.25;;;;;;;;;;4921695;29;20075;-80
2023/02/22 09:51:52;;;;;;;25.90;14.27;;;;;;;;;;4921306;29;20036;-80
2023/02/22 09:54:33;;;;;;;29.80;18.42;;;;;;;;;;4903988;29;20040;-80
2023/02/22 09:57:01;;;;;;;28.13;17.73;;;;;;;;;;4904602;29;20433;-80
2023/02/22 09:59:29;;;;;;;19.27;12.68;;;;;;;;;;4921131;29;20032;-80
2023/02/22 10:01:59;;;;;;;14.65;8.88;;;;;;;;;;4921110;29;20149;-80
2023/02/22 10:04:35;;;;;;;10.07;7.72;;;;;;;;;;4921281;29;20056;-80
2023/02/22 10:07:20;;;;;;;10.65;6.85;;;;;;;;;;4921214;29;20036;-80
2023/02/22 10:09:47;;;;;;;7.55;6.72;;;;;;;;;;4921170;29;20048;-80
2023/02/22 10:12:32;;;;;;;10.10;7.60;;;;;;;;;;4921279;29;20061;-80
2023/02/22 10:15:07;;;;;;;11.02;7.90;;;;;;;;;;4920941;29;20036;-80
2023/02/22 10:17:44;;;;;;;10.35;6.97;;;;;;;;;;4904258;29;20031;-80
2023/02/22 10:20:17;;;;;;;10.18;6.78;;;;;;;;;;4920823;29;20325;-80
2023/02/22 10:22:43;;;;;;;8.90;7.15;;;;;;;;;;4920855;29;20131;-80
2023/02/22 10:25:16;;;;;;;11.20;8.02;;;;;;;;;;4904057;29;20031;-80
2023/02/22 10:27:46;;;;;;;10.70;8.55;;;;;;;;;;4920968;29;20016;-80
2023/02/22 10:30:19;;;;;;;11.75;7.63;;;;;;;;;;4920943;29;20028;-80
2023/02/22 10:32:46;;;;;;;15.32;9.00;;;;;;;;;;4903893;29;20088;-82
2023/02/22 10:35:24;;;;;;;12.32;8.10;;;;;;;;;;4920857;29;20051;-80
2023/02/22 10:37:53;;;;;;;13.52;8.65;;;;;;;;;;4903747;29;20060;-80
2023/02/22 10:40:21;;;;;;;14.15;9.02;;;;;;;;;;4920841;29;20032;-81
2023/02/22 10:42:48;;;;;;;16.65;9.95;;;;;;;;;;4920945;29;20422;-81
2023/02/22 10:45:17;;;;;;;13.85;8.90;;;;;;;;;;4921836;29;20458;-80
2023/02/22 10:47:44;;;;;;;10.48;8.57;;;;;;;;;;4924613;29;20031;-80
2023/02/22 10:50:13;;;;;;;12.73;9.38;;;;;;;;;;4908013;29;20021;-80
2023/02/22 10:52:39;;;;;;;11.63;8.50;;;;;;;;;;4924671;29;20028;-80
2023/02/22 10:55:11;;;;;;;12.27;8.70;;;;;;;;;;4924807;29;20020;-81
2023/02/22 10:57:37;;;;;;;12.88;9.43;;;;;;;;;;4924640;29;20032;-80
2023/02/22 11:00:18;;;;;;;12.27;8.63;;;;;;;;;;4924392;29;20036;-81
2023/02/22 11:02:55;;;;;;;12.30;9.05;;;;;;;;;;4907518;29;20338;-81
2023/02/22 11:05:29;;;;;;;12.70;10.52;;;;;;;;;;4924195;29;20087;-81
2023/02/22 11:08:19;;;;;;;12.45;8.43;;;;;;;;;;4924735;29;20028;-81
2023/02/22 11:10:45;;;;;;;14.68;8.05;;;;;;;;;;4916894;29;20032;-80
2023/02/22 11:13:28;;;;;;;13.45;8.77;;;;;;;;;;4924460;29;20040;-80
2023/02/22 11:16:14;;;;;;;9.43;7.95;;;;;;;;;;4924094;29;20064;-80
2023/02/22 11:18:40;;;;;;;9.52;7.35;;;;;;;;;;4866253;29;20128;-80
2023/02/22 11:21:09;;;;;;;11.50;6.47;;;;;;;;;;4866204;29;20089;-80
2023/02/22 11:23:36;;;;;;;9.85;7.38;;;;;;;;;;4866048;29;20041;-80
2023/02/22 11:26:16;;;;;;;8.23;6.55;;;;;;;;;;4850290;29;20045;-80
2023/02/22 11:28:48;;;;;;;8.50;6.18;;;;;;;;;;4865930;29;20112;-81
2023/02/22 11:31:21;;;;;;;8.45;6.75;;;;;;;;;;4865714;29;20448;-79
2023/02/22 11:33:52;;;;;;;9.20;6.60;;;;;;;;;;4849934;29;20128;-79
2023/02/22 11:36:39;;;;;;;11.57;6.90;;;;;;;;;;4865452;29;20038;-80
2023/02/22 11:39:20;;;;;;;10.82;6.80;;;;;;;;;;4877168;29;20492;-79
2023/02/22 11:41:49;;;;;;;10.20;7.18;;;;;;;;;;4849928;29;20078;-79
2023/02/22 11:44:29;;;;;;;9.10;7.38;;;;;;;;;;4849947;29;20034;-80
2023/02/22 11:46:56;;;;;;;7.53;6.50;;;;;;;;;;4850046;29;20037;-80
2023/02/22 11:49:32;;;;;;;8.45;7.22;;;;;;;;;;4865571;29;20313;-80
2023/02/22 11:52:06;;;;;;;9.75;6.82;;;;;;;;;;4865655;29;20037;-79
2023/02/22 11:54:45;;;;;;;10.68;6.72;;;;;;;;;;4865435;29;20436;-80
2023/02/22 11:57:29;;;;;;;10.02;6.97;;;;;;;;;;4905334;29;20040;-80
2023/02/22 12:00:08;;;;;;;8.93;7.25;;;;;;;;;;4923379;29;20027;-80
2023/02/22 12:02:53;;;;;;;8.05;6.38;;;;;;;;;;4923005;29;20049;-79
2023/02/22 12:05:24;;;;;;;10.80;7.32;;;;;;;;;;4923250;29;20043;-79
2023/02/22 12:08:08;;;;;;;9.00;7.18;;;;;;;;;;4923470;29;20028;-80
2023/02/22 12:10:34;;;;;;;8.35;6.00;;;;;;;;;;4923192;29;20434;-80
2023/02/22 12:13:00;;;;;;;8.95;6.90;;;;;;;;;;4906426;29;20028;-80
2023/02/22 12:15:31;;;;;;;9.55;6.50;;;;;;;;;;4906150;29;20036;-80
2023/02/22 12:18:08;;;;;;;6.28;5.28;;;;;;;;;;4922947;29;20050;-80
2023/02/22 12:20:39;;;;;;;8.57;5.47;;;;;;;;;;4922865;29;20056;-80
2023/02/22 12:23:11;;;;;;;8.63;4.70;;;;;;;;;;4922975;29;20024;-80
2023/02/22 12:25:57;;;;;;;6.88;4.95;;;;;;;;;;4923064;29;20024;-80
2023/02/22 12:28:27;;;;;;;5.65;4.32;;;;;;;;;;4922694;29;20032;-80
2023/02/22 12:31:15;;;;;;;7.72;5.03;;;;;;;;;;4922707;29;20032;-80
2023/02/22 12:34:08;;;;;;;6.78;4.72;;;;;;;;;;4922856;29;20051;-80
2023/02/22 12:36:47;;;;;;;10.43;7.78;;;;;;;;;;4827644;29;20438;-80
2023/02/22 12:39:37;;;;;;;9.55;5.70;;;;;;;;;;4827543;29;20043;-80
2023/02/22 12:42:08;;;;;;;7.93;5.95;;;;;;;;;;4791709;30;20055;-80
2023/02/22 12:44:35;;;;;;;8.88;6.53;;;;;;;;;;4791701;30;20146;-80
2023/02/22 12:47:04;;;;;;;7.57;5.80;;;;;;;;;;4791709;30;20382;-80
2023/02/22 12:49:30;;;;;;;8.82;5.85;;;;;;;;;;4791508;30;20115;-79
2023/02/22 12:51:59;;;;;;;9.50;5.15;;;;;;;;;;4791500;30;20024;-80
2023/02/22 12:54:34;;;;;;;7.43;5.22;;;;;;;;;;4791354;30;20134;-79
2023/02/22 12:57:09;;;;;;;7.35;6.07;;;;;;;;;;4791555;30;20036;-80
2023/02/22 12:59:40;;;;;;;6.28;4.97;;;;;;;;;;4791413;30;20039;-80
2023/02/22 13:02:17;;;;;;;8.13;6.53;;;;;;;;;;4791261;30;20024;-80
2023/02/22 13:04:43;;;;;;;11.43;6.10;;;;;;;;;;4790974;30;20035;-80
2023/02/22 13:07:14;;;;;;;6.45;4.82;;;;;;;;;;4791316;30;20447;-80
2023/02/22 13:09:43;;;;;;;7.53;5.05;;;;;;;;;;4790920;30;20038;-80
2023/02/22 13:12:16;;;;;;;8.57;5.45;;;;;;;;;;4793127;29;20050;-79
2023/02/22 13:15:14;;;;;;;7.97;4.85;;;;;;;;;;4882520;29;20056;-79
2023/02/22 13:17:50;;;;;;;6.93;4.65;;;;;;;;;;4790693;30;20035;-80
2023/02/22 13:20:28;;;;;;;5.43;4.10;;;;;;;;;;4826308;29;20031;-80
2023/02/22 13:22:59;;;;;;;5.53;4.50;;;;;;;;;;4830554;29;20038;-79
2023/02/22 13:25:49;;;;;;;5.55;4.05;;;;;;;;;;4836763;29;20022;-79
2023/02/22 13:28:24;;;;;;;8.02;4.80;;;;;;;;;;4836335;29;20055;-80
2023/02/22 13:31:01;;;;;;;6.57;4.63;;;;;;;;;;4834507;29;20076;-80
2023/02/22 13:33:36;;;;;;;7.43;4.53;;;;;;;;;;4833741;29;20161;-80
2023/02/22 13:36:08;;;;;;;6.38;4.80;;;;;;;;;;4834217;29;20432;-83
2023/02/22 13:38:34;;;;;;;4.60;4.20;;;;;;;;;;4827605;29;20333;-80
2023/02/22 13:41:03;;;;;;;7.93;5.30;;;;;;;;;;4828588;29;20042;-79
2023/02/22 13:43:47;;;;;;;5.82;4.72;;;;;;;;;;4828643;29;20125;-79
2023/02/22 13:46:22;;;;;;;5.35;4.55;;;;;;;;;;4843990;29;20042;-81
2023/02/22 13:49:07;;;;;;;10.20;4.50;;;;;;;;;;4844651;29;20033;-92
2023/02/22 13:51:55;;;;;;;7.28;5.55;;;;;;;;;;4844724;29;20053;-93
2023/02/22 13:54:31;;;;;;;7.78;4.80;;;;;;;;;;4882034;29;20092;-92
2023/02/22 13:56:57;;;;;;;5.70;4.63;;;;;;;;;;4900719;29;20351;-93
2023/02/22 13:59:26;;;;;;;4.47;3.88;;;;;;;;;;4900410;29;20051;-92
2023/02/22 14:01:53;;;;;;;8.30;5.30;;;;;;;;;;4900523;29;20367;-92
2023/02/22 14:10:46;;;;;;;6.30;4.88;;;;;;;;;;4921121;29;20382;-93
2023/02/22 14:13:12;;;;;;;8.27;5.35;;;;;;;;;;4920940;29;20462;-95
2023/02/22 14:16:01;;;;;;;6.25;5.00;;;;;;;;;;4921197;29;20068;-94
2023/02/22 14:18:43;;;;;;;13.82;6.70;;;;;;;;;;4921248;29;20033;-93
2023/02/22 14:21:28;;;;;;;6.45;5.10;;;;;;;;;;4903451;29;20047;-92
2023/02/22 14:23:55;;;;;;;10.77;6.13;;;;;;;;;;4923140;29;20498;-94
2023/02/22 14:26:35;;;;;;;5.90;4.35;;;;;;;;;;4927329;29;20040;-93
2023/02/22 14:29:14;;;;;;;6.22;4.63;;;;;;;;;;4939612;29;20027;-92
2023/02/22 14:31:41;;;;;;;5.30;4.35;;;;;;;;;;4939426;29;20418;-93
2023/02/22 14:37:06;;;;;;;8.65;4.93;;;;;;;;;;4936624;29;20086;-93
2023/02/22 14:39:38;;;;;;;7.40;4.65;;;;;;;;;;4887612;29;20048;-95
2023/02/22 14:42:05;;;;;;;6.82;4.70;;;;;;;;;;4905500;29;20028;-94
2023/02/22 14:44:38;;;;;;;6.63;5.53;;;;;;;;;;4892930;29;20049;-93
2023/02/22 14:47:07;;;;;;;10.98;6.28;;;;;;;;;;4912685;29;20024;-94
2023/02/22 14:52:38;;;;;;;5.45;4.90;;;;;;;;;;4912919;29;20023;-94
2023/02/22 14:55:36;;;;;;;6.57;4.68;;;;;;;;;;4906603;29;20327;-83
2023/02/22 14:58:18;;;;;;;10.45;5.40;;;;;;;;;;4844630;29;20126;-83
2023/02/22 15:00:45;;;;;;;5.93;4.40;;;;;;;;;;4829517;29;20034;-83
2023/02/22 15:03:23;;;;;;;6.32;4.70;;;;;;;;;;4844692;29;20034;-83
2023/02/22 15:05:50;;;;;;;7.55;4.78;;;;;;;;;;4829331;29;20038;-83
2023/02/22 15:08:17;;;;;;;5.75;4.47;;;;;;;;;;4829365;29;20038;-83
2023/02/22 15:10:44;;;;;;;9.57;4.75;;;;;;;;;;4829304;29;20151;-83
2023/02/22 15:13:19;;;;;;;9.18;5.22;;;;;;;;;;4844591;29;20030;-83
2023/02/22 15:15:46;;;;;;;12.63;7.55;;;;;;;;;;4844642;29;20078;-83
2023/02/22 15:18:18;;;;;;;14.02;10.73;;;;;;;;;;4844634;29;20035;-82
2023/02/22 15:20:47;;;;;;;10.93;7.28;;;;;;;;;;4828971;29;20030;-82
2023/02/22 15:23:14;;;;;;;13.23;6.47;;;;;;;;;;4829089;29;20038;-82
2023/02/22 15:25:41;;;;;;;8.15;5.43;;;;;;;;;;4829141;29;20030;-90
2023/02/22 15:28:08;;;;;;;5.95;4.28;;;;;;;;;;4828565;29;20070;-82
2023/02/22 15:30:34;;;;;;;7.70;4.75;;;;;;;;;;4843864;29;20030;-82
2023/02/22 15:33:23;;;;;;;5.63;4.30;;;;;;;;;;4846964;29;20032;-83
2023/02/22 15:35:56;;;;;;;7.40;4.70;;;;;;;;;;4909857;29;20036;-83
2023/02/22 15:38:27;;;;;;;9.40;5.60;;;;;;;;;;4918773;29;20048;-82
2023/02/22 15:41:01;;;;;;;10.18;6.95;;;;;;;;;;4924026;29;20040;-83
2023/02/22 15:43:27;;;;;;;8.60;6.55;;;;;;;;;;4906743;29;20039;-82
2023/02/22 15:45:54;;;;;;;11.68;8.20;;;;;;;;;;4923835;29;20059;-82
2023/02/22 15:48:20;;;;;;;14.50;8.38;;;;;;;;;;4923889;29;20051;-83
2023/02/22 15:51:05;;;;;;;13.25;8.00;;;;;;;;;;4907034;29;20085;-83
2023/02/22 15:53:36;;;;;;;27.85;15.48;;;;;;;;;;4906878;29;20057;-83